createdAt,value
2018-08-23T00:01:16.988Z,19.2
2018-08-23T00:02:07.597Z,19.2
2018-08-23T00:02:57.530Z,19.3
2018-08-23T00:03:48.469Z,19.3
2018-08-23T00:04:37.540Z,19.2
2018-08-23T00:05:27.609Z,19.2
2018-08-23T00:06:17.678Z,19.2
2018-08-23T00:07:08.052Z,19.2
2018-08-23T00:07:58.273Z,19.2
2018-08-23T00:08:48.196Z,19.2
2018-08-23T00:09:38.279Z,19.2
2018-08-23T00:10:28.373Z,19.2
2018-08-23T00:11:18.355Z,19.2
2018-08-23T00:12:08.406Z,19.2
2018-08-23T00:31:25.567Z,19.1
2018-08-23T00:32:15.621Z,19.1
2018-08-23T00:33:05.421Z,19.1
2018-08-23T00:33:55.451Z,19.1
2018-08-23T00:34:45.536Z,19.1
2018-08-23T00:35:35.619Z,19.1
2018-08-23T00:36:25.369Z,19.1
2018-08-23T00:37:16.010Z,19.1
2018-08-23T00:38:05.493Z,19.1
2018-08-23T00:38:55.831Z,19.1
2018-08-23T00:39:46.207Z,19.1
2018-08-23T00:40:36.279Z,19.1
2018-08-23T00:41:26.063Z,19.1
2018-08-23T00:42:16.126Z,19.1
2018-08-23T00:43:06.160Z,19.1
2018-08-23T00:43:56.195Z,19.1
2018-08-23T00:44:45.441Z,19.1
2018-08-23T00:45:36.358Z,19.1
2018-08-23T00:46:26.423Z,19.1
2018-08-23T00:47:16.460Z,19.1
2018-08-23T00:48:06.523Z,19.1
2018-08-23T00:48:56.041Z,19
2018-08-23T00:49:46.964Z,19.1
2018-08-23T00:50:36.733Z,19.1
2018-08-23T00:51:26.773Z,19.1
2018-08-23T00:52:16.873Z,19.1
2018-08-23T00:53:07.237Z,19.1
2018-08-23T00:53:57.042Z,19
2018-08-23T00:54:47.361Z,19.1
2018-08-23T00:55:37.377Z,19
2018-08-23T00:56:27.178Z,19
2018-08-23T00:57:17.226Z,19
2018-08-23T00:58:07.592Z,19
2018-08-23T00:58:57.655Z,19
2018-08-23T00:59:47.689Z,19
2018-08-23T01:00:37.790Z,19
2018-08-23T01:01:27.822Z,19
2018-08-23T01:02:17.921Z,18.9
2018-08-23T01:03:07.976Z,18.9
2018-08-23T01:03:57.722Z,18.9
2018-08-23T01:04:48.077Z,19
2018-08-23T01:05:38.147Z,18.9
2018-08-23T01:06:28.210Z,18.9
2018-08-23T01:07:18.285Z,19
2018-08-23T01:08:08.396Z,18.9
2018-08-23T01:08:58.410Z,18.9
2018-08-23T01:09:48.497Z,18.9
2018-08-23T01:10:37.990Z,18.9
2018-08-23T01:11:28.592Z,19
2018-08-23T01:12:18.657Z,19
2018-08-23T01:13:08.729Z,18.9
2018-08-23T01:13:58.500Z,19
2018-08-23T01:14:48.584Z,19
2018-08-23T01:15:38.618Z,19
2018-08-23T01:16:28.689Z,19
2018-08-23T01:17:18.489Z,19
2018-08-23T01:18:08.247Z,19
2018-08-23T01:18:59.205Z,19
2018-08-23T01:19:49.264Z,19
2018-08-23T01:20:39.024Z,19
2018-08-23T01:21:29.364Z,19
2018-08-23T01:22:19.252Z,19
2018-08-23T01:23:09.506Z,19
2018-08-23T01:23:58.985Z,18.9
2018-08-23T01:24:49.362Z,19
2018-08-23T01:25:39.406Z,19
2018-08-23T01:26:29.765Z,19
2018-08-23T01:27:19.816Z,19
2018-08-23T01:28:09.609Z,18.9
2018-08-23T01:28:59.953Z,19
2018-08-23T01:29:49.443Z,19
2018-08-23T01:30:39.793Z,19
2018-08-23T01:31:30.166Z,19
2018-08-23T01:32:20.240Z,19
2018-08-23T01:33:10.276Z,18.9
2018-08-23T01:33:59.751Z,18.9
2018-08-23T01:34:50.392Z,18.9
2018-08-23T01:35:40.459Z,18.9
2018-08-23T01:36:30.490Z,18.9
2018-08-23T01:37:20.566Z,18.9
2018-08-23T01:38:10.360Z,18.9
2018-08-23T01:39:00.145Z,18.9
2018-08-23T01:39:50.488Z,18.9
2018-08-23T01:40:40.839Z,18.9
2018-08-23T01:41:30.613Z,18.9
2018-08-23T01:42:20.977Z,18.9
2018-08-23T01:43:11.007Z,18.9
2018-08-23T01:44:01.074Z,18.9
2018-08-23T01:44:50.848Z,18.9
2018-08-23T01:45:40.640Z,18.9
2018-08-23T01:46:30.695Z,18.9
2018-08-23T01:47:21.030Z,18.9
2018-08-23T01:48:11.392Z,18.8
2018-08-23T01:49:01.465Z,18.8
2018-08-23T01:49:51.252Z,18.8
2018-08-23T01:50:41.295Z,18.8
2018-08-23T01:51:31.089Z,18.8
2018-08-23T01:52:21.715Z,18.8
2018-08-23T01:53:11.498Z,18.8
2018-08-23T01:54:01.585Z,18.8
2018-08-23T01:54:51.913Z,18.8
2018-08-23T01:58:11.888Z,18.6
2018-08-23T01:59:02.225Z,18.6
2018-08-23T01:59:52.036Z,18.6
2018-08-23T02:00:42.099Z,18.5
2018-08-23T02:01:32.158Z,18.5
2018-08-23T02:02:22.207Z,18.5
2018-08-23T02:03:12.635Z,18.4
2018-08-23T02:04:02.657Z,18.4
2018-08-23T02:04:52.424Z,18.4
2018-08-23T02:05:42.769Z,18.3
2018-08-23T02:06:32.828Z,18.3
2018-08-23T02:07:22.608Z,18.3
2018-08-23T02:08:12.943Z,18.2
2018-08-23T02:09:02.716Z,18.1
2018-08-23T02:09:53.070Z,18.1
2018-08-23T02:10:43.139Z,18
2018-08-23T02:11:33.181Z,17.9
2018-08-23T02:12:23.246Z,17.9
2018-08-23T02:13:13.327Z,17.9
2018-08-23T02:14:02.822Z,17.9
2018-08-23T02:14:53.456Z,17.8
2018-08-23T02:15:43.244Z,17.8
2018-08-23T02:16:33.027Z,17.7
2018-08-23T02:17:23.647Z,17.6
2018-08-23T02:18:13.723Z,17.6
2018-08-23T02:19:03.547Z,17.5
2018-08-23T02:19:53.589Z,17.5
2018-08-23T02:20:43.635Z,17.4
2018-08-23T02:21:33.948Z,17.4
2018-08-23T02:22:23.759Z,17.3
2018-08-23T02:23:14.098Z,17.3
2018-08-23T02:24:03.884Z,17.3
2018-08-23T02:24:54.223Z,17.2
2018-08-23T02:25:44.010Z,17.2
2018-08-23T02:26:34.358Z,17.1
2018-08-23T02:27:23.860Z,17.1
2018-08-23T02:28:14.193Z,17.1
2018-08-23T02:29:54.673Z,16.9
2018-08-23T02:30:44.704Z,16.9
2018-08-23T02:31:34.479Z,16.9
2018-08-23T02:32:24.241Z,16.8
2018-08-23T02:33:14.576Z,16.8
2018-08-23T02:34:04.935Z,16.8
2018-08-23T02:34:54.741Z,16.7
2018-08-23T02:35:44.787Z,16.7
2018-08-23T02:36:35.125Z,16.6
2018-08-23T02:37:24.910Z,16.6
2018-08-23T02:38:15.729Z,16.6
2018-08-23T02:39:04.758Z,16.6
2018-08-23T02:39:55.106Z,16.5
2018-08-23T02:40:45.452Z,16.4
2018-08-23T02:41:35.510Z,16.4
2018-08-23T02:42:25.587Z,16.4
2018-08-23T02:43:15.468Z,16.4
2018-08-23T02:44:04.951Z,16.3
2018-08-23T02:44:55.311Z,16.3
2018-08-23T02:45:45.580Z,16.3
2018-08-23T02:46:35.624Z,16.2
2018-08-23T02:47:25.962Z,16.2
2018-08-23T02:48:16.039Z,16.1
2018-08-23T02:49:06.129Z,16.1
2018-08-23T02:49:55.873Z,16.1
2018-08-23T02:50:46.220Z,16
2018-08-23T02:51:36.275Z,16
2018-08-23T02:52:25.761Z,15.9
2018-08-23T02:53:15.844Z,15.9
2018-08-23T02:54:06.176Z,15.9
2018-08-23T02:54:56.535Z,15.8
2018-08-23T02:55:46.600Z,15.8
2018-08-23T02:56:36.667Z,15.8
2018-08-23T02:57:26.724Z,15.7
2018-08-23T02:58:16.789Z,15.7
2018-08-23T02:59:06.903Z,15.7
2018-08-23T02:59:56.933Z,15.6
2018-08-23T03:00:46.139Z,15.6
2018-08-23T03:01:37.067Z,15.6
2018-08-23T03:02:26.842Z,15.6
2018-08-23T03:03:17.231Z,15.5
2018-08-23T03:04:07.279Z,15.5
2018-08-23T03:04:57.035Z,15.5
2018-08-23T03:05:47.089Z,15.4
2018-08-23T03:06:37.459Z,15.4
2018-08-23T03:07:27.536Z,15.4
2018-08-23T03:08:17.596Z,15.4
2018-08-23T03:09:07.656Z,15.3
2018-08-23T03:09:57.428Z,15.3
2018-08-23T03:10:47.485Z,15.3
2018-08-23T03:11:37.840Z,15.3
2018-08-23T03:12:27.919Z,15.3
2018-08-23T03:13:17.725Z,15.3
2018-08-23T03:14:08.342Z,15.2
2018-08-23T03:14:57.809Z,15.2
2018-08-23T03:15:47.868Z,15.2
2018-08-23T03:16:38.207Z,15.1
2018-08-23T03:17:28.003Z,15.1
2018-08-23T03:18:18.342Z,15.1
2018-08-23T03:19:08.143Z,15.1
2018-08-23T03:19:58.488Z,15.1
2018-08-23T03:20:48.539Z,15
2018-08-23T03:21:38.603Z,15
2018-08-23T03:22:28.095Z,15
2018-08-23T03:23:18.731Z,14.9
2018-08-23T03:24:08.502Z,14.9
2018-08-23T03:24:58.571Z,14.9
2018-08-23T03:25:48.692Z,14.9
2018-08-23T03:26:39.023Z,14.9
2018-08-23T03:27:28.772Z,14.9
2018-08-23T03:28:18.833Z,14.8
2018-08-23T03:29:08.880Z,14.8
2018-08-23T03:29:58.952Z,14.8
2018-08-23T03:30:49.332Z,14.8
2018-08-23T03:31:39.123Z,14.8
2018-08-23T03:32:29.162Z,14.8
2018-08-23T03:33:19.502Z,14.8
2018-08-23T03:34:09.573Z,14.7
2018-08-23T03:34:59.070Z,14.7
2018-08-23T03:35:49.403Z,14.7
2018-08-23T03:36:39.488Z,14.6
2018-08-23T03:37:29.270Z,14.6
2018-08-23T03:38:19.900Z,14.6
2018-08-23T03:39:09.677Z,14.6
2018-08-23T03:39:59.835Z,14.6
2018-08-23T03:40:50.109Z,14.6
2018-08-23T03:41:39.889Z,14.6
2018-08-23T03:42:29.934Z,14.5
2018-08-23T03:43:19.988Z,14.5
2018-08-23T03:44:09.484Z,14.5
2018-08-23T03:45:00.396Z,14.4
2018-08-23T03:45:50.243Z,14.4
2018-08-23T03:46:40.517Z,14.4
2018-08-23T03:47:30.300Z,14.4
2018-08-23T03:48:20.677Z,14.4
2018-08-23T03:49:10.419Z,14.4
2018-08-23T03:50:00.217Z,14.4
2018-08-23T03:50:50.565Z,14.4
2018-08-23T03:51:40.646Z,14.4
2018-08-23T03:52:30.978Z,14.4
2018-08-23T03:53:20.467Z,14.4
2018-08-23T03:54:11.120Z,14.3
2018-08-23T03:55:00.608Z,14.3
2018-08-23T03:55:51.229Z,14.3
2018-08-23T03:56:41.286Z,14.3
2018-08-23T03:57:31.076Z,14.3
2018-08-23T03:58:21.151Z,14.3
2018-08-23T03:59:11.486Z,14.3
2018-08-23T04:00:01.585Z,14.3
2018-08-23T04:00:51.624Z,14.3
2018-08-23T04:01:41.686Z,14.3
2018-08-23T04:02:31.737Z,14.3
2018-08-23T04:03:21.518Z,14.3
2018-08-23T04:04:11.305Z,14.3
2018-08-23T04:05:01.946Z,14.3
2018-08-23T04:05:51.713Z,14.3
2018-08-23T04:06:41.803Z,14.3
2018-08-23T04:07:31.579Z,14.3
2018-08-23T04:08:22.200Z,14.3
2018-08-23T04:09:11.962Z,14.3
2018-08-23T04:10:02.330Z,14.3
2018-08-23T04:10:52.100Z,14.3
2018-08-23T04:11:42.455Z,14.4
2018-08-23T04:12:32.503Z,14.4
2018-08-23T04:13:22.585Z,14.4
2018-08-23T04:14:12.643Z,14.4
2018-08-23T04:15:02.747Z,14.4
2018-08-23T04:15:52.783Z,14.4
2018-08-23T04:16:42.845Z,14.4
2018-08-23T04:17:32.621Z,14.4
2018-08-23T04:18:22.692Z,14.4
2018-08-23T04:19:13.034Z,14.4
2018-08-23T04:20:03.117Z,14.5
2018-08-23T04:20:53.177Z,14.5
2018-08-23T04:21:42.962Z,14.5
2018-08-23T04:22:33.012Z,14.5
2018-08-23T04:23:23.070Z,14.5
2018-08-23T04:24:13.146Z,14.6
2018-08-23T04:25:03.238Z,14.6
2018-08-23T04:25:53.564Z,14.6
2018-08-23T04:26:43.627Z,14.6
2018-08-23T04:27:33.395Z,14.6
2018-08-23T04:28:23.187Z,14.6
2018-08-23T04:29:13.794Z,14.6
2018-08-23T04:30:03.881Z,14.6
2018-08-23T04:30:53.662Z,14.7
2018-08-23T04:31:43.719Z,14.7
2018-08-23T04:32:34.089Z,14.7
2018-08-23T04:33:24.129Z,14.7
2018-08-23T04:34:13.607Z,14.8
2018-08-23T04:35:03.972Z,14.8
2018-08-23T04:35:54.329Z,14.8
2018-08-23T04:36:44.107Z,14.8
2018-08-23T04:37:34.431Z,14.8
2018-08-23T04:38:24.529Z,14.8
2018-08-23T04:39:14.558Z,14.9
2018-08-23T04:40:04.354Z,14.9
2018-08-23T04:40:54.415Z,14.9
2018-08-23T04:41:44.781Z,15
2018-08-23T04:42:34.832Z,15
2018-08-23T05:00:31.221Z,17.4
2018-08-23T05:01:21.916Z,17.6
2018-08-23T05:02:11.903Z,17.8
2018-08-23T05:03:01.406Z,17.9
2018-08-23T05:03:52.140Z,18.1
2018-08-23T05:04:42.121Z,18.3
2018-08-23T05:05:32.167Z,18.5
2018-08-23T05:06:21.703Z,18.6
2018-08-23T05:07:12.290Z,18.8
2018-08-23T05:08:02.359Z,19
2018-08-23T05:08:52.419Z,19.3
2018-08-23T05:09:42.476Z,19.4
2018-08-23T05:10:32.083Z,19.6
2018-08-23T05:11:22.599Z,19.8
2018-08-23T05:12:12.671Z,20.1
2018-08-23T05:13:02.784Z,20.3
2018-08-23T05:13:52.897Z,20.5
2018-08-23T05:14:42.579Z,20.7
2018-08-23T05:15:32.950Z,20.9
2018-08-23T05:16:22.146Z,21.2
2018-08-23T05:17:12.202Z,21.4
2018-08-23T05:18:02.854Z,21.6
2018-08-23T05:18:53.203Z,21.9
2018-08-23T05:19:43.251Z,22.2
2018-08-23T05:20:33.325Z,22.4
2018-08-23T05:21:22.840Z,22.7
2018-08-23T05:22:13.155Z,22.9
2018-08-23T05:23:03.503Z,23.3
2018-08-23T05:23:53.594Z,23.5
2018-08-23T05:24:43.650Z,23.8
2018-08-23T05:25:33.694Z,24.1
2018-08-23T05:26:23.485Z,24.3
2018-08-23T05:27:13.821Z,24.6
2018-08-23T05:28:03.900Z,24.9
2018-08-23T05:28:53.956Z,25.2
2018-08-23T05:29:44.311Z,25.5
2018-08-23T05:30:33.812Z,25.8
2018-08-23T05:31:24.157Z,26.1
2018-08-23T05:32:14.205Z,26.3
2018-08-23T05:33:04.323Z,26.6
2018-08-23T05:33:54.337Z,26.9
2018-08-23T05:34:44.139Z,27.1
2018-08-23T05:35:34.221Z,27.4
2018-08-23T05:36:24.281Z,27.6
2018-08-23T05:37:14.316Z,27.9
2018-08-23T05:38:04.667Z,28.3
2018-08-23T05:38:54.473Z,28.6
2018-08-23T05:39:44.791Z,28.9
2018-08-23T05:40:34.571Z,29.1
2018-08-23T05:41:24.640Z,29.4
2018-08-23T05:42:14.979Z,29.8
2018-08-23T05:43:04.749Z,30.1
2018-08-23T05:43:54.835Z,30.4
2018-08-23T05:44:45.165Z,30.6
2018-08-23T05:45:34.957Z,30.9
2018-08-23T05:46:25.347Z,31.2
2018-08-23T05:47:14.838Z,31.5
2018-08-23T05:48:05.166Z,31.8
2018-08-23T05:48:55.532Z,32.1
2018-08-23T05:49:45.275Z,32.4
2018-08-23T05:50:35.077Z,32.8
2018-08-23T05:51:25.434Z,33
2018-08-23T05:52:15.770Z,33.4
2018-08-23T05:53:05.820Z,33.7
2018-08-23T05:53:55.613Z,34.1
2018-08-23T05:54:45.683Z,34.4
2018-08-23T05:55:36.055Z,34.8
2018-08-23T05:56:26.106Z,35.2
2018-08-23T05:57:16.157Z,35.5
2018-08-23T05:58:06.257Z,35.9
2018-08-23T05:58:56.000Z,36.3
2018-08-23T05:59:46.342Z,36.6
2018-08-23T06:00:36.446Z,37
2018-08-23T06:01:26.467Z,37.4
2018-08-23T06:02:16.534Z,37.7
2018-08-23T06:03:06.327Z,38.1
2018-08-23T06:03:56.366Z,38.4
2018-08-23T06:04:46.716Z,38.7
2018-08-23T06:05:36.803Z,39
2018-08-23T06:06:26.567Z,39.3
2018-08-23T06:07:16.904Z,39.7
2018-08-23T06:08:06.454Z,40
2018-08-23T06:08:57.042Z,40.4
2018-08-23T06:09:47.093Z,40.8
2018-08-23T06:10:37.161Z,41.2
2018-08-23T06:11:27.284Z,41.6
2018-08-23T06:12:17.299Z,41.9
2018-08-23T06:13:07.102Z,42.3
2018-08-23T06:13:57.142Z,42.7
2018-08-23T06:14:47.503Z,43.1
2018-08-23T06:15:37.553Z,43.6
2018-08-23T06:16:27.618Z,43.9
2018-08-23T06:17:17.421Z,44.4
2018-08-23T06:18:07.743Z,44.8
2018-08-23T06:18:57.808Z,45.2
2018-08-23T06:19:47.948Z,45.6
2018-08-23T06:20:37.940Z,46
2018-08-23T06:21:28.023Z,46.4
2018-08-23T06:22:18.070Z,46.8
2018-08-23T06:23:07.861Z,47.2
2018-08-23T06:23:57.942Z,47.6
2018-08-23T06:24:48.019Z,47.9
2018-08-23T06:25:37.806Z,48.3
2018-08-23T06:26:27.645Z,48.8
2018-08-23T06:27:17.741Z,49.1
2018-08-23T06:28:08.560Z,49.6
2018-08-23T06:28:57.563Z,49.9
2018-08-23T06:29:48.192Z,50.3
2018-08-23T06:30:38.180Z,50.7
2018-08-23T06:31:28.535Z,51.1
2018-08-23T06:32:18.322Z,51.4
2018-08-23T06:33:08.954Z,51.8
2018-08-23T06:33:58.948Z,52.2
2018-08-23T06:34:48.796Z,52.6
2018-08-23T06:35:38.948Z,52.9
2018-08-23T06:36:28.744Z,53.3
2018-08-23T06:37:18.799Z,53.6
2018-08-23T06:38:09.152Z,53.9
2018-08-23T06:38:58.702Z,54.3
2018-08-23T06:39:49.167Z,54.6
2018-08-23T06:40:39.269Z,54.9
2018-08-23T06:41:28.821Z,55.3
2018-08-23T06:42:19.378Z,55.6
2018-08-23T06:43:09.434Z,56.5
2018-08-23T06:43:59.283Z,57.4
2018-08-23T06:44:49.882Z,56.3
2018-08-23T06:45:39.516Z,54.3
2018-08-23T06:46:29.720Z,50.6
2018-08-23T06:47:19.255Z,47.8
2018-08-23T06:48:09.621Z,46.9
2018-08-23T06:48:59.780Z,46.1
2018-08-23T06:49:49.705Z,45.6
2018-08-23T06:50:39.321Z,45.4
2018-08-23T06:51:30.092Z,45.6
2018-08-23T06:52:20.162Z,45.9
2018-08-23T06:53:10.564Z,46.4
2018-08-23T06:53:59.696Z,47
2018-08-23T06:54:50.073Z,47.6
2018-08-23T06:55:40.422Z,48.3
2018-08-23T06:56:30.288Z,48.9
2018-08-23T06:57:19.957Z,49.6
2018-08-23T06:58:10.628Z,50.3
2018-08-23T06:59:00.147Z,50.9
2018-08-23T06:59:50.541Z,51.6
2018-08-23T07:00:40.514Z,52.3
2018-08-23T07:01:30.753Z,53
2018-08-23T07:02:20.724Z,53.6
2018-08-23T07:03:10.709Z,54.2
2018-08-23T07:04:01.140Z,54.7
2018-08-23T07:04:50.923Z,55.3
2018-08-23T07:05:40.709Z,55.8
2018-08-23T07:06:31.277Z,57.1
2018-08-23T07:07:21.057Z,57.6
2018-08-23T07:08:11.489Z,56.3
2018-08-23T07:09:00.963Z,54.5
2018-08-23T07:10:42.053Z,50.8
2018-08-23T07:11:31.356Z,49.7
2018-08-23T07:12:21.428Z,49.2
2018-08-23T07:13:11.676Z,49.2
2018-08-23T07:14:01.847Z,49.5
2018-08-23T07:14:52.175Z,50
2018-08-23T07:15:41.556Z,50.6
2018-08-23T07:16:31.833Z,51.3
2018-08-23T07:17:22.136Z,52.1
2018-08-23T07:18:12.185Z,52.9
2018-08-23T07:19:02.215Z,53.7
2018-08-23T07:19:51.679Z,54.4
2018-08-23T07:20:42.347Z,55.2
2018-08-23T07:21:32.205Z,56.3
2018-08-23T07:22:22.503Z,58
2018-08-23T07:24:02.103Z,57.3
2018-08-23T07:24:52.490Z,56.3
2018-08-23T07:25:42.263Z,54.9
2018-08-23T07:26:32.699Z,53.7
2018-08-23T07:27:23.165Z,53.4
2018-08-23T07:28:12.758Z,53.8
2018-08-23T07:29:03.402Z,54.4
2018-08-23T07:29:53.814Z,54.8
2018-08-23T07:30:43.208Z,54.9
2018-08-23T07:31:33.616Z,54.8
2018-08-23T07:32:23.543Z,54.5
2018-08-23T07:33:13.872Z,54.4
2018-08-23T07:34:03.688Z,54.6
2018-08-23T07:34:53.720Z,54.8
2018-08-23T07:35:43.802Z,55.1
2018-08-23T07:36:33.696Z,55.4
2018-08-23T07:37:23.385Z,55.5
2018-08-23T07:38:13.699Z,55.6
2018-08-23T07:39:03.826Z,55.6
2018-08-23T07:39:54.109Z,55.7
2018-08-23T07:40:44.194Z,55.8
2018-08-23T07:41:34.262Z,55.9
2018-08-23T07:42:24.161Z,56
2018-08-23T07:43:14.568Z,56
2018-08-23T07:44:04.448Z,55.9
2018-08-23T07:44:54.504Z,55.9
2018-08-23T07:45:44.592Z,55.9
2018-08-23T07:46:34.361Z,56
2018-08-23T07:47:24.719Z,56.1
2018-08-23T07:48:14.770Z,56.3
2018-08-23T07:49:04.588Z,56.4
2018-08-23T07:49:55.025Z,56.5
2018-08-23T07:50:44.710Z,56.6
2018-08-23T07:51:35.062Z,56.6
2018-08-23T07:52:25.172Z,56.6
2018-08-23T07:53:15.729Z,56.7
2018-08-23T07:54:04.946Z,56.8
2018-08-23T07:54:55.291Z,56.9
2018-08-23T07:55:45.348Z,57
2018-08-23T07:56:35.513Z,57.1
2018-08-23T07:57:25.508Z,57.3
2018-08-23T07:58:15.304Z,57.4
2018-08-23T07:59:05.620Z,57.6
2018-08-23T07:59:55.691Z,57.7
2018-08-23T08:00:45.761Z,57.9
2018-08-23T08:01:35.912Z,58
2018-08-23T08:02:25.595Z,58.1
2018-08-23T08:03:15.930Z,58.3
2018-08-23T08:04:06.017Z,58.4
2018-08-23T08:05:46.178Z,58.7
2018-08-23T08:06:36.201Z,58.8
2018-08-23T08:07:26.315Z,58.9
2018-08-23T08:08:16.356Z,59
2018-08-23T08:09:06.407Z,59.1
2018-08-23T08:09:56.187Z,59.2
2018-08-23T08:10:46.549Z,59.3
2018-08-23T08:11:36.588Z,59.3
2018-08-23T08:12:26.657Z,59.4
2018-08-23T08:13:16.455Z,59.4
2018-08-23T08:14:06.825Z,59.6
2018-08-23T08:14:57.430Z,59.7
2018-08-23T08:15:46.660Z,59.8
2018-08-23T08:16:36.996Z,59.9
2018-08-23T08:17:27.081Z,60.1
2018-08-23T08:18:16.847Z,60.2
2018-08-23T08:19:07.184Z,60.3
2018-08-23T08:19:56.977Z,60.5
2018-08-23T08:20:47.585Z,60.7
2018-08-23T08:21:37.579Z,60.8
2018-08-23T08:22:27.471Z,61
2018-08-23T08:23:17.533Z,61.1
2018-08-23T08:24:07.004Z,61.1
2018-08-23T08:24:57.659Z,61.1
2018-08-23T08:25:47.724Z,61.1
2018-08-23T08:26:37.797Z,61.1
2018-08-23T08:27:27.297Z,61.1
2018-08-23T08:28:17.918Z,61.2
2018-08-23T08:29:08.028Z,61.3
2018-08-23T08:29:58.041Z,61.3
2018-08-23T08:30:48.172Z,61.4
2018-08-23T08:31:38.186Z,61.6
2018-08-23T08:32:28.273Z,61.7
2018-08-23T08:33:18.813Z,61.8
2018-08-23T08:34:08.353Z,61.9
2018-08-23T08:34:58.446Z,62.1
2018-08-23T08:35:48.003Z,62.2
2018-08-23T08:36:38.478Z,62.3
2018-08-23T08:37:28.526Z,62.3
2018-08-23T08:38:18.523Z,62.2
2018-08-23T08:39:08.494Z,62.2
2018-08-23T08:39:58.810Z,62.1
2018-08-23T08:40:48.885Z,62.1
2018-08-23T08:41:38.775Z,62
2018-08-23T08:42:28.957Z,61.8
2018-08-23T08:43:19.133Z,61.8
2018-08-23T08:44:08.998Z,61.7
2018-08-23T08:44:58.984Z,61.6
2018-08-23T08:45:49.173Z,61.6
2018-08-23T08:46:39.488Z,61.7
2018-08-23T08:47:29.528Z,61.6
2018-08-23T08:48:19.014Z,61.6
2018-08-23T08:49:09.384Z,61.4
2018-08-23T08:49:59.458Z,61.3
2018-08-23T08:50:49.870Z,61.2
2018-08-23T08:51:39.536Z,61.1
2018-08-23T08:52:29.903Z,61.1
2018-08-23T08:53:19.705Z,61.1
2018-08-23T08:54:10.017Z,61.1
2018-08-23T08:54:59.993Z,61.1
2018-08-23T08:55:49.527Z,61.1
2018-08-23T08:56:40.418Z,61.1
2018-08-23T08:57:30.258Z,61.1
2018-08-23T08:58:20.237Z,61
2018-08-23T09:14:58.761Z,60.4
2018-08-23T09:15:48.800Z,60.2
2018-08-23T09:16:38.883Z,59.9
2018-08-23T09:17:28.926Z,59.7
2018-08-23T09:18:19.012Z,59.5
2018-08-23T09:19:09.047Z,59.4
2018-08-23T09:19:59.138Z,59.3
2018-08-23T09:20:49.132Z,59.3
2018-08-23T09:21:39.250Z,59.4
2018-08-23T09:22:29.042Z,59.4
2018-08-23T09:23:19.084Z,59.4
2018-08-23T09:24:09.179Z,59.4
2018-08-23T09:24:59.512Z,59.6
2018-08-23T09:25:49.294Z,59.7
2018-08-23T09:26:39.646Z,59.9
2018-08-23T09:27:29.727Z,60.1
2018-08-23T09:28:19.215Z,60.1
2018-08-23T09:29:09.856Z,60.3
2018-08-23T09:29:59.914Z,60.3
2018-08-23T09:30:49.975Z,60.3
2018-08-23T09:31:40.071Z,60.3
2018-08-23T09:32:30.104Z,60.2
2018-08-23T09:33:19.890Z,60.3
2018-08-23T09:34:10.219Z,60.3
2018-08-23T09:35:00.171Z,60.3
2018-08-23T09:35:50.132Z,60.1
2018-08-23T09:36:40.455Z,59.8
2018-08-23T09:37:30.485Z,59.5
2018-08-23T09:38:20.573Z,59.5
2018-08-23T09:39:10.635Z,59.7
2018-08-23T09:40:00.703Z,59.9
2018-08-23T09:40:50.785Z,60.2
2018-08-23T09:41:41.041Z,60.3
2018-08-23T09:42:30.870Z,60.5
2018-08-23T09:43:20.973Z,60.6
2018-08-23T09:44:10.718Z,60.8
2018-08-23T09:45:01.070Z,61.1
2018-08-23T09:45:50.866Z,61.2
2018-08-23T09:46:40.940Z,61
2018-08-23T09:47:31.006Z,61.1
2018-08-23T09:48:21.062Z,61.3
2018-08-23T09:49:11.122Z,61.5
2018-08-23T09:50:01.687Z,61.7
2018-08-23T09:50:52.287Z,61.9
2018-08-23T09:51:41.316Z,61.9
2018-08-23T09:52:31.383Z,62
2018-08-23T09:53:21.736Z,62
2018-08-23T09:54:11.523Z,62.1
2018-08-23T09:55:01.865Z,62.2
2018-08-23T09:55:51.369Z,62.3
2018-08-23T09:56:42.284Z,62.4
2018-08-23T09:57:31.781Z,62.5
2018-08-23T09:58:22.126Z,62.6
2018-08-23T09:59:12.199Z,62.7
2018-08-23T10:00:02.254Z,62.8
2018-08-23T10:00:52.063Z,62.8
2018-08-23T10:01:42.390Z,62.8
2018-08-23T10:02:32.222Z,62.5
2018-08-23T10:03:22.548Z,62.6
2018-08-23T10:04:12.776Z,62.7
2018-08-23T10:05:02.705Z,62.8
2018-08-23T10:05:52.722Z,62.8
2018-08-23T10:06:42.798Z,62.6
2018-08-23T10:07:32.588Z,62.6
2018-08-23T10:08:22.915Z,62.6
2018-08-23T10:09:12.976Z,62.7
2018-08-23T10:10:03.046Z,62.6
2018-08-23T10:10:52.821Z,62.3
2018-08-23T10:11:43.584Z,62
2018-08-23T10:12:32.750Z,62.1
2018-08-23T10:13:23.024Z,62.4
2018-08-23T10:14:13.363Z,62.8
2018-08-23T10:15:03.433Z,63
2018-08-23T10:15:53.203Z,63.2
2018-08-23T10:16:43.287Z,63.3
2018-08-23T10:17:33.654Z,63.3
2018-08-23T10:18:23.117Z,63.3
2018-08-23T10:19:13.734Z,63.2
2018-08-23T10:20:03.608Z,63.2
2018-08-23T10:20:53.903Z,63.2
2018-08-23T10:21:43.993Z,63.2
2018-08-23T10:22:34.026Z,63.1
2018-08-23T10:23:24.103Z,63.1
2018-08-23T10:24:14.142Z,62.7
2018-08-23T10:25:04.221Z,62.4
2018-08-23T10:25:54.275Z,62.3
2018-08-23T10:26:44.964Z,62.4
2018-08-23T10:27:34.519Z,62.6
2018-08-23T10:28:24.504Z,62.8
2018-08-23T10:29:14.536Z,62.9
2018-08-23T10:30:04.614Z,63
2018-08-23T10:30:54.691Z,63
2018-08-23T10:31:44.482Z,62.9
2018-08-23T10:32:34.810Z,62.9
2018-08-23T10:33:24.946Z,62.9
2018-08-23T10:34:14.964Z,62.8
2018-08-23T10:35:05.028Z,62.9
2018-08-23T10:35:55.105Z,62.9
2018-08-23T10:36:44.597Z,62.9
2018-08-23T10:37:35.265Z,63
2018-08-23T10:38:25.023Z,62.9
2018-08-23T10:39:15.107Z,62.8
2018-08-23T10:40:05.408Z,62.7
2018-08-23T10:40:55.505Z,62.8
2018-08-23T10:41:45.002Z,62.9
2018-08-23T10:42:35.336Z,62.9
2018-08-23T10:43:25.372Z,62.9
2018-08-23T10:44:15.651Z,62.8
2018-08-23T10:45:05.533Z,62.9
2018-08-23T10:45:55.014Z,62.9
2018-08-23T10:46:45.925Z,62.9
2018-08-23T10:47:35.719Z,62.9
2018-08-23T10:48:25.769Z,63.1
2018-08-23T10:49:15.815Z,63.3
2018-08-23T10:50:05.925Z,63.3
2018-08-23T10:50:56.442Z,63.3
2018-08-23T10:51:46.089Z,63.3
2018-08-23T10:52:36.401Z,63.1
2018-08-23T10:53:26.418Z,62.4
2018-08-23T10:54:16.529Z,62.1
2018-08-23T10:55:06.595Z,62.1
2018-08-23T10:55:56.657Z,62.2
2018-08-23T10:56:46.699Z,62.4
2018-08-23T10:57:36.479Z,62.6
2018-08-23T10:58:26.845Z,62.6
2018-08-23T10:59:16.931Z,62.6
2018-08-23T11:00:06.949Z,62.4
2018-08-23T11:00:57.030Z,62.3
2018-08-23T11:01:46.803Z,62.3
2018-08-23T11:02:37.153Z,62.1
2018-08-23T11:03:27.226Z,62
2018-08-23T11:04:17.306Z,61.9
2018-08-23T11:05:07.349Z,61.8
2018-08-23T11:05:57.416Z,61.7
2018-08-23T11:06:47.198Z,61.7
2018-08-23T11:07:37.300Z,61.8
2018-08-23T11:08:27.613Z,62.1
2018-08-23T11:09:17.711Z,62.3
2018-08-23T11:10:07.758Z,62.5
2018-08-23T11:10:57.836Z,62.7
2018-08-23T11:11:47.625Z,62.8
2018-08-23T11:12:37.963Z,62.9
2018-08-23T11:13:28.047Z,63.1
2018-08-23T11:14:17.795Z,63.1
2018-08-23T11:15:07.894Z,63.2
2018-08-23T11:15:58.203Z,63.2
2018-08-23T11:16:48.877Z,63.2
2018-08-23T11:17:38.340Z,63.2
2018-08-23T11:18:28.405Z,63.1
2018-08-23T11:19:18.480Z,63.1
2018-08-23T11:20:08.073Z,63.2
2018-08-23T11:20:58.335Z,63.3
2018-08-23T11:21:48.647Z,63.3
2018-08-23T11:22:38.726Z,63.2
2018-08-23T11:23:28.520Z,63.2
2018-08-23T11:24:18.966Z,63.1
2018-08-23T11:25:08.953Z,63.1
2018-08-23T11:25:58.718Z,63.1
2018-08-23T11:26:48.775Z,63.2
2018-08-23T11:27:39.130Z,63.3
2018-08-23T11:28:28.638Z,63.3
2018-08-23T11:29:18.685Z,63.4
2018-08-23T11:30:09.321Z,63.4
2018-08-23T11:30:59.366Z,63.5
2018-08-23T11:31:49.440Z,63.6
2018-08-23T11:32:39.499Z,63.6
2018-08-23T11:33:29.599Z,63.6
2018-08-23T11:34:19.370Z,63.6
2018-08-23T11:35:09.740Z,63.6
2018-08-23T11:35:59.811Z,63.5
2018-08-23T11:36:49.603Z,63.4
2018-08-23T11:37:39.354Z,63.4
2018-08-23T11:38:29.426Z,63.3
2018-08-23T11:39:20.047Z,63.3
2018-08-23T11:40:10.151Z,63.3
2018-08-23T11:41:00.186Z,63.3
2018-08-23T11:41:49.967Z,63.3
2018-08-23T11:42:40.517Z,63.4
2018-08-23T11:43:30.396Z,63.5
2018-08-23T11:44:20.437Z,63.6
2018-08-23T11:45:10.234Z,63.6
2018-08-23T11:46:00.629Z,63.7
2018-08-23T11:46:50.376Z,63.6
2018-08-23T11:47:40.718Z,63.6
2018-08-23T11:48:30.769Z,63.5
2018-08-23T11:49:20.843Z,63.5
2018-08-23T11:50:10.917Z,63.5
2018-08-23T11:51:00.429Z,63.6
2018-08-23T11:51:50.462Z,63.6
2018-08-23T11:52:40.862Z,63.6
2018-08-23T11:53:32.508Z,63.6
2018-08-23T11:54:20.942Z,63.5
2018-08-23T11:55:11.001Z,63.5
2018-08-23T11:56:01.377Z,63.4
2018-08-23T11:56:51.429Z,63.4
2018-08-23T11:57:41.489Z,63.3
2018-08-23T11:58:31.631Z,63.2
2018-08-23T11:59:21.379Z,63.1
2018-08-23T12:00:11.392Z,62.8
2018-08-23T12:01:01.804Z,62.6
2018-08-23T12:01:51.913Z,62.4
2018-08-23T12:02:41.946Z,62.2
2018-08-23T12:03:31.696Z,62.1
2018-08-23T12:04:21.765Z,61.9
2018-08-23T12:05:11.493Z,61.6
2018-08-23T12:06:01.853Z,61.4
2018-08-23T12:06:52.196Z,61.3
2018-08-23T12:07:42.418Z,61.3
2018-08-23T12:08:32.352Z,61.3